Time;durP1;ratioP1;P1;durP2;ratioP2;P2;SDS_P1;SDS_P2;PMS_P1;PMS_P2;Temp;Humidity;BMP_temperature;BMP_pressure;BME280_temperature;BME280_humidity;BME280_pressure;Samples;Min_cycle;Max_cycle;Signal;HPM_P1;HPM_P2
2022/02/02 00:00:51;;;;;;;1.48;0.70;;;6.40;95.10;;;;;;9967866;28;20030;-67
2022/02/02 00:05:55;;;;;;;1.95;0.80;;;6.40;95.20;;;;;;9953301;28;20026;-67
2022/02/02 00:21:41;;;;;;;2.13;0.60;;;6.40;95.20;;;;;;9846504;29;20087;-66
2022/02/02 00:26:37;;;;;;;1.38;0.70;;;6.40;95.30;;;;;;9951648;28;20050;-67
2022/02/02 00:31:35;;;;;;;;;;;6.40;95.20;;;;;;9976588;28;20101;-67
2022/02/02 00:36:33;;;;;;;1.73;0.88;;;6.40;95.50;;;;;;9984401;28;19916;-67
2022/02/02 00:41:24;;;;;;;2.00;0.98;;;6.40;95.60;;;;;;9971876;28;20022;-67
2022/02/02 00:46:15;;;;;;;1.42;0.80;;;6.40;95.40;;;;;;9975240;28;20247;-68
2022/02/02 00:51:07;;;;;;;1.35;0.82;;;6.40;95.40;;;;;;9955018;28;20039;-69
2022/02/02 00:55:57;;;;;;;1.48;0.95;;;6.40;95.40;;;;;;9971602;28;20034;-68
2022/02/02 01:00:48;;;;;;;1.80;0.93;;;6.50;95.40;;;;;;9973671;28;20428;-68
2022/02/02 01:05:39;;;;;;;1.25;0.68;;;6.50;95.40;;;;;;9973700;28;20939;-68
2022/02/02 01:10:42;;;;;;;3.28;1.25;;;6.50;95.60;;;;;;9977080;28;20042;-68
2022/02/02 01:20:49;;;;;;;1.30;0.82;;;6.50;95.50;;;;;;9966822;28;20174;-69
2022/02/02 01:30:49;;;;;;;1.55;1.10;;;6.60;95.60;;;;;;9966629;28;20057;-66
2022/02/02 01:35:40;;;;;;;1.80;1.10;;;6.60;95.50;;;;;;9967022;28;20023;-68
2022/02/02 01:40:39;;;;;;;1.90;0.70;;;6.60;95.50;;;;;;9978673;28;20038;-66
2022/02/02 01:45:41;;;;;;;4.25;1.17;;;6.60;95.60;;;;;;9972043;28;20053;-68
2022/02/02 01:55:40;;;;;;;1.83;1.58;;;6.90;95.60;;;;;;9976030;28;20037;-69
2022/02/02 02:00:31;;;;;;;2.92;1.08;;;7.00;95.70;;;;;;9969551;28;20035;-68
2022/02/02 02:05:22;;;;;;;2.03;1.33;;;7.10;95.60;;;;;;9968999;28;20235;-68
2022/02/02 02:10:13;;;;;;;1.60;0.73;;;7.10;95.50;;;;;;9961085;28;20045;-69
2022/02/02 02:15:06;;;;;;;2.33;1.25;;;7.30;95.60;;;;;;9974196;28;20029;-67
2022/02/02 02:19:57;;;;;;;2.78;1.23;;;7.40;95.60;;;;;;9976375;28;20099;-68
2022/02/02 02:24:48;;;;;;;4.10;1.75;;;7.50;95.60;;;;;;9977245;28;20542;-67
2022/02/02 02:30:02;;;;;;;2.30;1.50;;;7.60;95.40;;;;;;9973427;28;20062;-68
2022/02/02 02:55:50;;;;;;;6.47;1.38;;;7.50;95.80;;;;;;9968009;28;20085;-68
2022/02/02 04:07:03;;;;;;;8.13;2.85;;;9.10;94.60;;;;;;9974870;28;20030;-68
2022/02/02 04:58:04;;;;;;;5.95;2.67;;;9.10;94.00;;;;;;9971594;28;20105;-67
2022/02/02 05:48:38;;;;;;;4.60;1.98;;;9.30;93.40;;;;;;9966946;28;20038;-67
2022/02/02 05:53:30;;;;;;;4.93;1.98;;;9.20;93.40;;;;;;9969672;28;20065;-66
2022/02/02 05:58:26;;;;;;;7.78;1.83;;;9.30;93.30;;;;;;9976102;28;20038;-67
2022/02/02 06:03:18;;;;;;;5.90;2.10;;;9.30;93.30;;;;;;9967698;28;20401;-69
2022/02/02 06:08:11;;;;;;;2.95;1.52;;;9.30;93.30;;;;;;9970817;28;20072;-68
2022/02/02 06:13:02;;;;;;;4.57;2.42;;;9.20;93.20;;;;;;9962806;28;20461;-69
2022/02/02 06:17:53;;;;;;;3.03;1.33;;;9.30;93.20;;;;;;9971477;28;20030;-67
2022/02/02 06:23:00;;;;;;;9.93;2.25;;;9.30;93.10;;;;;;9968379;28;20727;-66
2022/02/02 06:28:22;;;;;;;5.60;1.80;;;9.30;93.00;;;;;;9963281;28;20148;-67
2022/02/02 06:33:13;;;;;;;5.70;2.70;;;9.40;93.00;;;;;;9964905;28;20120;-67
2022/02/02 06:38:05;;;;;;;4.47;2.05;;;9.30;93.00;;;;;;9966755;28;20034;-67
2022/02/02 06:42:57;;;;;;;6.28;1.23;;;9.30;93.10;;;;;;9972387;28;20033;-68
2022/02/02 06:47:48;;;;;;;7.25;2.10;;;9.20;93.10;;;;;;9974788;28;20038;-67
2022/02/02 06:53:11;;;;;;;5.18;1.85;;;9.20;93.10;;;;;;9966305;28;20058;-67
2022/02/02 06:58:22;;;;;;;6.38;2.15;;;9.20;93.20;;;;;;9949359;28;20109;-67
2022/02/02 07:03:42;;;;;;;4.47;2.38;;;9.20;93.20;;;;;;9950848;28;20547;-68
2022/02/02 07:13:59;;;;;;;2.13;1.20;;;9.30;93.10;;;;;;9972046;28;20599;-68
2022/02/02 07:33:44;;;;;;;5.57;1.98;;;9.40;92.90;;;;;;9995422;28;20030;-67
2022/02/02 07:38:50;;;;;;;8.05;2.70;;;9.40;92.90;;;;;;9987501;28;20034;-66
2022/02/02 07:43:44;;;;;;;6.10;1.75;;;9.40;92.90;;;;;;9967594;28;20014;-65
2022/02/02 07:48:40;;;;;;;5.65;2.03;;;9.40;92.90;;;;;;9968966;28;20089;-64
2022/02/02 07:53:39;;;;;;;6.60;1.92;;;9.40;92.80;;;;;;9971825;28;20438;-67
2022/02/02 07:58:33;;;;;;;7.90;2.10;;;9.40;92.80;;;;;;9974895;28;20610;-65
2022/02/02 08:03:25;;;;;;;3.85;1.85;;;9.40;92.80;;;;;;9969321;28;20065;-68
2022/02/02 08:13:24;;;;;;;5.93;1.88;;;9.50;92.70;;;;;;9966457;28;20031;-69
2022/02/02 08:18:14;;;;;;;9.47;2.57;;;9.50;92.60;;;;;;9945754;28;20088;-68
2022/02/02 08:23:05;;;;;;;8.40;2.30;;;9.60;92.40;;;;;;9975240;28;20040;-69
2022/02/02 08:28:04;;;;;;;6.35;2.42;;;9.60;92.40;;;;;;9966676;28;20390;-70
2022/02/02 08:33:00;;;;;;;4.53;2.17;;;9.70;92.50;;;;;;9967972;28;20024;-70
2022/02/02 08:42:52;;;;;;;6.97;2.30;;;9.80;92.30;;;;;;9963033;28;20121;-67
2022/02/02 08:47:53;;;;;;;4.60;2.15;;;9.90;92.30;;;;;;9965544;28;20567;-68
2022/02/02 08:52:53;;;;;;;3.90;2.45;;;10.00;92.20;;;;;;9966980;28;20029;-68
2022/02/02 08:57:52;;;;;;;10.05;2.85;;;10.10;92.20;;;;;;9965094;28;20507;-67
2022/02/02 09:02:55;;;;;;;5.50;2.70;;;10.00;92.10;;;;;;9968041;28;20029;-67
2022/02/02 09:07:50;;;;;;;7.78;2.33;;;10.00;92.10;;;;;;9951526;28;20051;-67
2022/02/02 09:33:51;;;;;;;7.07;2.83;;;10.10;91.90;;;;;;9955766;28;20053;-67
2022/02/02 09:38:34;;;;;;;6.97;2.97;;;10.20;91.90;;;;;;9962794;28;20103;-65
2022/02/02 09:43:28;;;;;;;8.30;1.85;;;10.30;91.80;;;;;;9952287;28;20447;-65
2022/02/02 09:48:27;;;;;;;6.00;2.13;;;10.30;91.70;;;;;;9965709;28;20038;-65
2022/02/02 09:53:31;;;;;;;10.95;2.70;;;10.20;91.60;;;;;;9962083;28;20049;-66
2022/02/02 09:58:55;;;;;;;7.40;2.45;;;10.20;91.60;;;;;;9957426;28;20026;-69
2022/02/02 10:08:55;;;;;;;11.68;3.60;;;10.40;91.50;;;;;;9963571;28;20078;-65
2022/02/02 10:13:51;;;;;;;5.40;2.38;;;10.40;91.30;;;;;;9958753;28;20027;-67
2022/02/02 10:18:42;;;;;;;4.13;1.75;;;10.50;91.20;;;;;;9959215;28;20048;-66
2022/02/02 10:23:35;;;;;;;8.73;2.58;;;10.50;91.20;;;;;;9958231;28;20109;-66
2022/02/02 10:28:31;;;;;;;8.95;2.20;;;10.50;91.20;;;;;;9966933;28;20055;-65
2022/02/02 10:33:27;;;;;;;3.70;1.85;;;10.50;91.10;;;;;;9965434;28;20038;-66
2022/02/02 10:38:26;;;;;;;4.75;2.20;;;10.40;91.00;;;;;;9963901;28;20452;-65
2022/02/02 10:43:32;;;;;;;3.85;1.65;;;10.40;90.90;;;;;;9961285;28;20481;-65
2022/02/02 10:49:03;;;;;;;3.47;1.85;;;10.40;90.90;;;;;;9955759;28;20037;-67
2022/02/02 10:54:26;;;;;;;6.07;1.38;;;10.30;91.00;;;;;;9946367;28;20045;-68
2022/02/02 11:09:02;;;;;;;6.25;1.65;;;10.40;91.20;;;;;;9967109;28;20058;-68
2022/02/02 11:14:00;;;;;;;5.40;1.85;;;10.50;91.20;;;;;;9970457;28;20030;-65
2022/02/02 11:18:53;;;;;;;8.88;2.67;;;10.60;91.30;;;;;;9975520;28;20092;-65
2022/02/02 11:23:49;;;;;;;4.68;1.85;;;10.50;91.30;;;;;;9967686;28;20019;-68
2022/02/02 11:28:48;;;;;;;5.32;1.67;;;10.40;91.40;;;;;;9954068;28;20038;-67
2022/02/02 11:33:44;;;;;;;3.22;1.83;;;10.50;91.40;;;;;;9964321;28;20121;-71
2022/02/02 11:38:40;;;;;;;4.25;2.42;;;10.40;91.50;;;;;;9951372;28;20165;-73
2022/02/02 11:44:04;;;;;;;2.28;1.00;;;10.40;91.60;;;;;;9959324;28;20081;-73
2022/02/02 11:48:59;;;;;;;2.78;1.30;;;10.50;91.70;;;;;;9968867;28;20042;-73
2022/02/02 11:53:50;;;;;;;5.23;1.27;;;10.50;91.70;;;;;;9963979;28;20038;-71
2022/02/02 11:58:42;;;;;;;1.98;1.40;;;10.60;91.80;;;;;;9973653;28;20285;-73
2022/02/02 12:04:19;;;;;;;5.07;1.20;;;10.50;91.90;;;;;;9972615;28;20035;-73
2022/02/02 12:09:18;;;;;;;1.80;1.08;;;10.50;91.90;;;;;;9978451;28;20145;-71
2022/02/02 13:01:08;;;;;;;2.17;1.90;;;10.70;92.60;;;;;;9963106;28;20038;-70
2022/02/02 13:05:47;;;;;;;0.85;0.75;;;10.70;92.70;;;;;;9961247;28;20064;-69
2022/02/02 13:10:38;;;;;;;1.08;0.80;;;10.80;92.70;;;;;;9952750;28;20051;-71
2022/02/02 13:20:51;;;;;;;1.83;1.02;;;10.70;92.90;;;;;;9967525;28;20045;-69
2022/02/02 13:25:44;;;;;;;2.20;0.80;;;10.70;92.90;;;;;;9974272;28;20063;-70
2022/02/02 13:30:53;;;;;;;2.28;1.02;;;10.70;92.90;;;;;;9949816;28;20053;-68
2022/02/02 13:35:58;;;;;;;3.65;0.82;;;10.70;93.10;;;;;;9965891;28;20061;-69
2022/02/02 13:51:55;;;;;;;0.80;0.70;;;10.40;93.60;;;;;;9880600;28;20141;-70
2022/02/02 14:01:47;;;;;;;2.97;1.00;;;10.60;93.50;;;;;;9964809;28;20075;-67
2022/02/02 14:32:03;;;;;;;2.38;0.70;;;10.60;93.90;;;;;;9961184;28;20049;-68
2022/02/02 14:36:54;;;;;;;1.85;0.80;;;10.50;94.10;;;;;;9950704;28;20038;-68
2022/02/02 14:41:53;;;;;;;0.82;0.60;;;10.40;94.10;;;;;;9967580;28;20417;-70
2022/02/02 14:47:01;;;;;;;1.00;0.80;;;10.40;94.30;;;;;;9972087;28;20090;-69
2022/02/02 15:09:04;;;;;;;1.77;1.38;;;10.30;94.50;;;;;;9984812;28;20065;-71
2022/02/02 15:28:15;;;;;;;2.03;0.88;;;10.50;94.50;;;;;;9964602;28;20053;-72
2022/02/02 15:33:11;;;;;;;1.75;1.27;;;10.60;94.60;;;;;;9963378;28;20093;-70
2022/02/02 15:38:06;;;;;;;3.55;1.50;;;10.50;94.70;;;;;;9947284;28;20027;-70
2022/02/02 15:43:25;;;;;;;2.22;1.50;;;10.60;94.70;;;;;;9968800;28;20027;-68
2022/02/02 15:58:35;;;;;;;2.90;1.63;;;10.50;94.90;;;;;;9990491;28;20045;-69
2022/02/02 16:03:38;;;;;;;3.53;1.33;;;10.40;95.00;;;;;;9974753;28;20025;-70
2022/02/02 16:08:29;;;;;;;2.03;1.70;;;10.40;95.00;;;;;;9990997;28;20082;-73
2022/02/02 16:13:41;;;;;;;3.67;2.25;;;10.40;95.00;;;;;;9975926;28;20037;-73
2022/02/02 16:18:37;;;;;;;7.50;1.80;;;10.30;95.10;;;;;;9955173;28;20638;-73
2022/02/02 16:34:44;;;;;;;2.88;2.20;;;10.30;95.30;;;;;;9982933;28;20034;-73
2022/02/02 16:39:07;;;;;;;3.53;1.73;;;10.30;95.30;;;;;;9973557;28;20117;-69
2022/02/02 16:43:58;;;;;;;4.20;2.22;;;10.30;95.30;;;;;;9970208;28;20393;-69
2022/02/02 16:48:48;;;;;;;4.93;2.17;;;10.30;95.30;;;;;;9959556;28;20034;-69
2022/02/02 16:53:46;;;;;;;3.08;1.80;;;10.20;95.50;;;;;;9965170;28;20026;-74
2022/02/02 17:34:32;;;;;;;3.95;2.08;;;10.20;95.80;;;;;;9979736;28;20116;-78
2022/02/02 17:39:33;;;;;;;3.10;2.53;;;10.20;95.90;;;;;;9958740;28;20197;-72
2022/02/02 17:45:06;;;;;;;3.75;2.63;;;10.20;95.90;;;;;;9973513;28;20030;-72
2022/02/02 18:20:08;;;;;;;7.38;3.13;;;10.10;96.30;;;;;;9966073;28;20133;-72
2022/02/02 18:25:07;;;;;;;5.07;3.58;;;10.10;96.30;;;;;;9969981;28;20019;-73
2022/02/02 18:30:16;;;;;;;7.07;4.55;;;10.20;96.20;;;;;;9968281;28;20539;-74
2022/02/02 18:35:13;;;;;;;10.27;4.32;;;10.20;96.30;;;;;;9966593;28;20014;-71
2022/02/02 18:41:16;;;;;;;7.43;3.88;;;10.20;96.30;;;;;;9969408;28;20030;-73
2022/02/02 18:55:53;;;;;;;7.35;3.60;;;10.10;96.50;;;;;;9972208;28;20053;-73
2022/02/02 19:00:58;;;;;;;7.20;3.30;;;10.10;96.50;;;;;;9968831;28;20049;-77
2022/02/02 20:07:26;;;;;;;7.55;5.30;;;9.80;96.40;;;;;;9914937;28;20133;-76
2022/02/02 20:12:23;;;;;;;7.72;4.43;;;9.80;96.60;;;;;;9976290;28;20047;-77
2022/02/02 20:17:16;;;;;;;7.10;3.42;;;9.80;96.70;;;;;;9978917;28;20037;-75
2022/02/02 20:22:07;;;;;;;9.02;4.22;;;9.80;96.50;;;;;;9983759;28;20041;-73
2022/02/02 20:26:58;;;;;;;6.18;3.53;;;9.90;96.50;;;;;;9979839;28;20145;-73
2022/02/02 20:31:49;;;;;;;8.88;4.20;;;9.80;96.50;;;;;;9969080;28;20663;-76
2022/02/02 20:36:40;;;;;;;6.70;4.32;;;9.70;96.50;;;;;;9972503;28;20026;-80
2022/02/02 20:41:33;;;;;;;7.55;4.38;;;9.60;96.60;;;;;;9967306;28;20420;-76
2022/02/02 21:02:41;;;;;;;5.80;3.78;;;9.60;96.70;;;;;;9966138;28;20519;-70
2022/02/02 21:17:01;;;;;;;7.40;5.03;;;9.60;96.60;;;;;;9959053;28;20030;-70
2022/02/02 21:21:57;;;;;;;7.90;4.13;;;9.60;96.60;;;;;;9963719;28;20506;-69
2022/02/02 21:27:04;;;;;;;8.48;4.28;;;9.60;96.70;;;;;;9979087;28;20042;-68
2022/02/02 21:31:56;;;;;;;7.03;4.40;;;9.60;96.70;;;;;;9965486;28;20038;-70
2022/02/02 21:36:47;;;;;;;6.22;3.45;;;9.70;96.80;;;;;;9966503;28;20026;-68
2022/02/02 21:41:40;;;;;;;7.00;3.60;;;9.70;96.80;;;;;;9953381;28;20026;-69
2022/02/02 21:46:31;;;;;;;6.28;4.18;;;9.80;96.70;;;;;;9963716;28;20437;-70
2022/02/02 21:51:27;;;;;;;10.55;3.65;;;9.70;96.70;;;;;;9962405;28;20521;-69
2022/02/02 21:56:19;;;;;;;7.65;3.55;;;9.70;96.80;;;;;;9980782;28;20074;-70
2022/02/02 22:01:11;;;;;;;5.75;3.42;;;9.70;96.80;;;;;;9965128;28;20069;-71
2022/02/02 22:06:01;;;;;;;6.28;3.33;;;9.70;96.80;;;;;;9971207;28;20422;-72
2022/02/02 22:10:56;;;;;;;5.95;3.45;;;9.70;96.80;;;;;;9971428;28;20044;-70
2022/02/02 22:15:53;;;;;;;7.53;4.03;;;9.60;96.80;;;;;;9970167;28;20032;-69
2022/02/02 22:20:44;;;;;;;6.22;3.53;;;9.60;96.80;;;;;;9956242;28;20038;-70
2022/02/02 22:25:35;;;;;;;6.10;3.72;;;9.30;96.70;;;;;;9961647;28;20117;-73
2022/02/02 22:30:26;;;;;;;5.88;3.30;;;9.60;96.80;;;;;;9908072;28;20158;-70
2022/02/02 22:35:17;;;;;;;4.28;3.15;;;9.60;96.70;;;;;;9910788;28;20027;-72
2022/02/02 22:40:09;;;;;;;7.18;3.53;;;9.60;96.70;;;;;;9917909;28;20065;-71
2022/02/02 22:45:03;;;;;;;5.82;3.90;;;9.50;96.70;;;;;;9903948;28;20094;-71
2022/02/02 22:49:54;;;;;;;4.80;3.28;;;9.50;96.70;;;;;;9932304;28;20087;-71
2022/02/02 22:54:45;;;;;;;6.32;3.47;;;9.50;96.70;;;;;;9927045;28;20041;-71
2022/02/02 22:59:39;;;;;;;5.85;3.83;;;9.50;96.70;;;;;;9928742;28;20031;-72
2022/02/02 23:04:30;;;;;;;6.35;4.25;;;9.50;96.70;;;;;;9944005;28;20032;-71
2022/02/02 23:09:20;;;;;;;8.40;4.07;;;9.50;96.60;;;;;;9936664;28;20034;-70
2022/02/02 23:14:19;;;;;;;7.30;3.78;;;9.60;96.70;;;;;;9935545;28;20023;-72
2022/02/02 23:19:10;;;;;;;6.15;3.28;;;9.60;96.70;;;;;;9922790;28;20099;-70
2022/02/02 23:24:03;;;;;;;5.53;3.58;;;9.50;96.80;;;;;;9923840;28;20139;-72
2022/02/02 23:28:57;;;;;;;6.38;4.15;;;9.50;96.80;;;;;;9948140;28;20082;-70
2022/02/02 23:33:48;;;;;;;5.43;2.80;;;9.40;96.80;;;;;;9950255;28;20022;-70
2022/02/02 23:38:39;;;;;;;4.05;2.83;;;9.50;96.80;;;;;;9970712;28;20038;-70
2022/02/02 23:43:30;;;;;;;6.88;4.00;;;9.50;96.70;;;;;;9973215;28;20077;-72
2022/02/02 23:48:22;;;;;;;5.18;2.83;;;9.50;96.70;;;;;;9968566;28;20092;-71
2022/02/02 23:53:13;;;;;;;4.57;3.25;;;9.60;96.70;;;;;;9965579;28;20022;-70
2022/02/02 23:58:20;;;;;;;4.85;2.92;;;9.60;96.60;;;;;;9971960;28;20041;-70
